createdAt,value
2023-05-04T00:02:12.787Z,54.44
2023-05-04T00:04:42.877Z,54.61
2023-05-04T00:07:10.700Z,54.67
2023-05-04T00:09:38.425Z,54.56
2023-05-04T00:12:07.018Z,54.59
2023-05-04T00:14:34.807Z,54.79
2023-05-04T00:17:06.446Z,54.75
2023-05-04T00:19:34.211Z,55.38
2023-05-04T00:22:02.025Z,54.82
2023-05-04T00:24:29.805Z,55.12
2023-05-04T00:26:57.435Z,54.82
2023-05-04T00:29:25.144Z,54.93
2023-05-04T00:31:52.826Z,54.93
2023-05-04T00:34:21.874Z,55.01
2023-05-04T00:36:49.700Z,54.80
2023-05-04T00:39:17.340Z,55.19
2023-05-04T00:41:45.935Z,55.19
2023-05-04T00:44:14.136Z,55.12
2023-05-04T00:46:42.122Z,55.16
2023-05-04T00:49:10.084Z,55.28
2023-05-04T00:51:39.182Z,55.47
2023-05-04T00:54:06.898Z,55.17
2023-05-04T00:56:39.075Z,55.35
2023-05-04T00:59:06.959Z,55.94
2023-05-04T01:01:34.677Z,55.61
2023-05-04T01:04:02.885Z,55.69
2023-05-04T01:06:36.255Z,55.71
2023-05-04T01:09:10.729Z,55.94
2023-05-04T01:11:42.422Z,55.65
2023-05-04T01:14:11.078Z,55.75
2023-05-04T01:16:38.815Z,55.59
2023-05-04T01:19:06.562Z,55.72
2023-05-04T01:21:36.832Z,55.63
2023-05-04T01:24:04.734Z,55.65
2023-05-04T01:26:36.702Z,55.45
2023-05-04T01:29:12.660Z,55.76
2023-05-04T01:31:40.988Z,56.13
2023-05-04T01:34:08.933Z,55.94
2023-05-04T01:36:38.022Z,55.98
2023-05-04T01:39:05.769Z,56.00
2023-05-04T01:41:33.502Z,56.34
2023-05-04T01:44:01.210Z,56.11
2023-05-04T01:46:29.204Z,56.08
2023-05-04T01:48:57.019Z,56.46
2023-05-04T01:51:24.667Z,56.35
2023-05-04T01:53:53.695Z,56.40
2023-05-04T01:56:21.741Z,56.61
2023-05-04T01:58:49.478Z,56.45
2023-05-04T02:01:17.204Z,56.45
2023-05-04T02:03:45.557Z,56.32
2023-05-04T02:06:13.289Z,56.85
2023-05-04T02:08:41.069Z,57.01
2023-05-04T02:11:10.128Z,56.95
2023-05-04T02:13:37.783Z,56.90
2023-05-04T02:16:06.242Z,56.85
2023-05-04T02:18:33.950Z,56.97
2023-05-04T02:21:01.721Z,56.87
2023-05-04T02:23:29.653Z,56.96
2023-05-04T02:25:57.309Z,57.00
2023-05-04T02:28:26.387Z,57.07
2023-05-04T02:30:54.114Z,57.26
2023-05-04T02:33:21.839Z,57.23
2023-05-04T02:35:49.593Z,57.34
2023-05-04T02:38:17.211Z,57.28
2023-05-04T02:40:44.877Z,57.27
2023-05-04T02:43:12.606Z,57.22
2023-05-04T02:45:41.746Z,57.30
2023-05-04T02:48:09.514Z,57.27
2023-05-04T02:50:37.709Z,57.25
2023-05-04T02:53:05.366Z,57.54
2023-05-04T02:55:33.052Z,57.38
2023-05-04T02:58:01.247Z,57.44
2023-05-04T03:00:28.955Z,57.48
2023-05-04T03:02:58.018Z,57.67
2023-05-04T03:05:25.875Z,57.75
2023-05-04T03:07:53.590Z,57.69
2023-05-04T03:10:21.948Z,57.58
2023-05-04T03:12:49.683Z,57.51
2023-05-04T03:15:17.753Z,57.96
2023-05-04T03:17:45.517Z,57.75
2023-05-04T03:20:15.709Z,57.65
2023-05-04T03:22:43.425Z,57.68
2023-05-04T03:25:11.255Z,57.81
2023-05-04T03:27:38.930Z,58.00
2023-05-04T03:30:08.127Z,58.08
2023-05-04T03:32:36.200Z,57.80
2023-05-04T03:35:04.374Z,57.71
2023-05-04T03:37:33.577Z,57.98
2023-05-04T03:40:01.283Z,57.88
2023-05-04T03:42:28.954Z,57.97
2023-05-04T03:44:56.638Z,58.05
2023-05-04T03:47:24.412Z,57.86
2023-05-04T03:49:52.122Z,57.86
2023-05-04T03:52:19.748Z,57.80
2023-05-04T03:54:48.803Z,57.99
2023-05-04T03:57:16.501Z,58.13
2023-05-04T03:59:44.249Z,57.99
2023-05-04T04:02:12.012Z,58.03
2023-05-04T04:04:39.868Z,58.12
2023-05-04T04:07:07.670Z,58.16
2023-05-04T04:09:35.415Z,58.21
2023-05-04T04:12:04.797Z,58.22
2023-05-04T04:14:32.464Z,58.29
2023-05-04T04:17:00.122Z,58.27
2023-05-04T04:19:27.821Z,58.59
2023-05-04T04:21:55.758Z,58.29
2023-05-04T04:24:23.469Z,58.45
2023-05-04T04:26:51.103Z,58.67
2023-05-04T04:29:20.177Z,58.93
2023-05-04T04:31:47.804Z,58.92
2023-05-04T04:34:15.550Z,58.74
2023-05-04T04:36:43.865Z,58.54
2023-05-04T04:39:12.131Z,58.83
2023-05-04T04:41:39.825Z,59.01
2023-05-04T04:44:07.639Z,58.88
2023-05-04T04:46:36.868Z,58.79
2023-05-04T04:49:04.547Z,58.82
2023-05-04T04:51:32.665Z,58.89
2023-05-04T04:54:00.305Z,59.12
2023-05-04T04:56:28.031Z,59.08
2023-05-04T04:58:55.658Z,59.18
2023-05-04T05:01:23.502Z,59.33
2023-05-04T05:03:52.540Z,59.43
2023-05-04T05:06:20.775Z,59.54
2023-05-04T05:08:48.525Z,59.71
2023-05-04T05:11:16.486Z,59.43
2023-05-04T05:13:44.269Z,59.38
2023-05-04T05:16:12.028Z,59.76
2023-05-04T05:18:39.763Z,59.83
2023-05-04T05:21:09.176Z,59.81
2023-05-04T05:23:36.764Z,59.56
2023-05-04T05:26:04.416Z,59.85
2023-05-04T05:28:32.474Z,60.65
2023-05-04T05:31:00.235Z,60.43
2023-05-04T05:33:28.020Z,60.73
2023-05-04T05:35:55.742Z,60.25
2023-05-04T05:38:24.887Z,60.61
2023-05-04T05:40:52.598Z,60.41
2023-05-04T05:43:20.278Z,60.94
2023-05-04T05:45:48.713Z,60.57
2023-05-04T05:48:16.453Z,60.52
2023-05-04T05:50:44.186Z,60.93
2023-05-04T05:53:11.866Z,60.78
2023-05-04T05:55:40.971Z,59.48
2023-05-04T05:58:08.708Z,59.77
2023-05-04T06:00:36.360Z,59.45
2023-05-04T06:03:04.076Z,58.71
2023-05-04T06:05:32.028Z,59.79
2023-05-04T06:07:59.827Z,60.06
2023-05-04T06:10:27.941Z,59.22
2023-05-04T06:12:57.077Z,59.67
2023-05-04T06:15:24.835Z,59.46
2023-05-04T06:17:52.597Z,58.78
2023-05-04T06:20:20.420Z,60.11
2023-05-04T06:22:48.042Z,59.26
2023-05-04T06:25:15.777Z,59.26
2023-05-04T06:27:43.600Z,60.01
2023-05-04T06:30:14.033Z,59.25
2023-05-04T06:32:41.920Z,59.54
2023-05-04T06:35:10.579Z,59.60
2023-05-04T06:37:38.278Z,59.60
2023-05-04T06:40:07.291Z,59.89
2023-05-04T06:42:35.059Z,59.10
2023-05-04T06:45:03.176Z,59.02
2023-05-04T06:47:32.491Z,59.68
2023-05-04T06:50:00.226Z,59.08
2023-05-04T06:52:29.658Z,58.52
2023-05-04T06:54:57.357Z,58.35
2023-05-04T06:57:25.180Z,59.57
2023-05-04T06:59:53.687Z,58.50
2023-05-04T07:02:21.379Z,59.02
2023-05-04T07:04:50.638Z,59.26
2023-05-04T07:07:18.311Z,59.14
2023-05-04T07:09:47.860Z,58.97
2023-05-04T07:12:15.616Z,59.74
2023-05-04T07:14:43.328Z,58.63
2023-05-04T07:17:11.803Z,58.84
2023-05-04T07:19:39.470Z,58.02
2023-05-04T07:22:08.503Z,57.29
2023-05-04T07:24:36.198Z,58.68
2023-05-04T07:27:03.901Z,57.63
2023-05-04T07:29:32.198Z,56.96
2023-05-04T07:31:59.950Z,56.82
2023-05-04T07:34:41.742Z,57.65
2023-05-04T07:37:13.944Z,57.93
2023-05-04T07:39:41.692Z,57.91
2023-05-04T07:42:11.201Z,57.59
2023-05-04T07:44:38.879Z,57.97
2023-05-04T07:47:06.580Z,56.40
2023-05-04T07:49:34.316Z,57.41
2023-05-04T07:52:02.005Z,57.74
2023-05-04T07:54:31.409Z,57.24
2023-05-04T07:56:59.154Z,58.07
2023-05-04T07:59:26.942Z,57.00
2023-05-04T08:01:54.649Z,56.52
2023-05-04T08:04:22.455Z,55.95
2023-05-04T08:06:50.892Z,57.96
2023-05-04T08:09:19.953Z,57.32
2023-05-04T08:11:50.029Z,57.06
2023-05-04T08:14:17.759Z,57.06
2023-05-04T08:16:45.481Z,55.66
2023-05-04T08:19:13.478Z,55.79
2023-05-04T08:21:41.517Z,55.50
2023-05-04T08:24:09.216Z,54.53
2023-05-04T08:26:38.091Z,54.98
2023-05-04T08:29:08.466Z,54.83
2023-05-04T08:31:36.453Z,54.81
2023-05-04T08:34:04.697Z,55.03
2023-05-04T08:36:32.441Z,56.05
2023-05-04T08:39:00.137Z,55.29
2023-05-04T08:41:27.889Z,55.84
2023-05-04T08:43:55.612Z,57.23
2023-05-04T08:46:24.895Z,54.31
2023-05-04T08:48:52.991Z,53.61
2023-05-04T08:51:21.170Z,55.67
2023-05-04T08:53:49.598Z,55.56
2023-05-04T08:56:17.917Z,54.46
2023-05-04T08:58:49.924Z,55.62
2023-05-04T09:01:18.618Z,55.31
2023-05-04T09:03:48.544Z,54.42
2023-05-04T09:06:16.435Z,54.24
2023-05-04T09:08:44.129Z,53.69
2023-05-04T09:11:11.765Z,54.78
2023-05-04T09:13:39.479Z,52.93
2023-05-04T09:16:07.761Z,53.16
2023-05-04T09:18:39.460Z,53.13
2023-05-04T09:21:08.892Z,53.98
2023-05-04T09:23:47.273Z,53.55
2023-05-04T09:26:15.098Z,51.45
2023-05-04T09:28:43.382Z,52.65
2023-05-04T09:31:11.799Z,51.54
2023-05-04T09:33:39.538Z,51.35
2023-05-04T09:36:19.294Z,52.22
2023-05-04T09:38:47.045Z,51.76
2023-05-04T09:41:14.902Z,52.27
2023-05-04T09:43:43.841Z,52.20
2023-05-04T09:46:18.248Z,52.81
2023-05-04T09:48:53.402Z,52.40
2023-05-04T09:51:24.841Z,50.25
2023-05-04T09:53:53.822Z,50.79
2023-05-04T09:56:28.641Z,51.35
2023-05-04T09:58:58.739Z,50.78
2023-05-04T10:01:29.058Z,50.96
2023-05-04T10:03:56.834Z,48.75
2023-05-04T10:06:26.418Z,49.54
2023-05-04T10:08:54.050Z,50.34
2023-05-04T10:11:21.713Z,48.49
2023-05-04T10:13:49.893Z,47.75
2023-05-04T10:16:27.562Z,50.21
2023-05-04T10:19:17.936Z,49.55
2023-05-04T10:21:56.942Z,49.15
2023-05-04T10:24:37.966Z,45.82
2023-05-04T10:27:08.263Z,47.90
2023-05-04T10:29:36.153Z,48.68
2023-05-04T10:32:04.250Z,46.81
2023-05-04T10:34:33.236Z,47.97
2023-05-04T10:37:03.403Z,47.78
2023-05-04T10:39:32.465Z,47.25
2023-05-04T10:42:01.610Z,46.43
2023-05-04T10:44:30.122Z,45.21
2023-05-04T10:46:59.905Z,45.66
2023-05-04T10:49:27.801Z,44.41
2023-05-04T10:52:11.248Z,46.28
2023-05-04T10:54:39.698Z,44.75
2023-05-04T10:57:09.090Z,45.92
2023-05-04T10:59:37.277Z,45.95
2023-05-04T11:02:05.562Z,45.99
2023-05-04T11:04:33.543Z,44.50
2023-05-04T11:07:03.133Z,45.99
2023-05-04T11:09:37.746Z,44.55
2023-05-04T11:12:05.796Z,44.38
2023-05-04T11:14:37.545Z,44.25
2023-05-04T11:17:47.537Z,43.70
2023-05-04T11:20:22.727Z,43.90
2023-05-04T11:22:50.724Z,44.33
2023-05-04T11:25:18.910Z,45.18
2023-05-04T11:27:50.423Z,44.19
2023-05-04T11:30:18.244Z,45.12
2023-05-04T11:32:47.527Z,45.50
2023-05-04T11:35:16.912Z,43.47
2023-05-04T11:37:46.240Z,43.82
2023-05-04T11:40:16.311Z,43.50
2023-05-04T11:42:44.834Z,42.51
2023-05-04T11:45:15.656Z,43.65
2023-05-04T11:47:43.655Z,42.09
2023-05-04T11:50:13.800Z,43.25
2023-05-04T11:52:41.814Z,42.19
2023-05-04T11:55:11.058Z,41.33
2023-05-04T11:57:39.188Z,41.87
2023-05-04T12:00:08.377Z,40.94
2023-05-04T12:02:36.461Z,41.08
2023-05-04T12:05:05.317Z,39.62
2023-05-04T12:07:37.862Z,40.35
2023-05-04T12:10:06.017Z,38.45
2023-05-04T12:12:37.251Z,39.15
2023-05-04T12:15:07.720Z,40.51
2023-05-04T12:17:41.949Z,39.45
2023-05-04T12:20:10.094Z,38.75
2023-05-04T12:22:39.581Z,37.87
2023-05-04T12:25:09.303Z,39.05
2023-05-04T12:27:41.542Z,38.68
2023-05-04T12:30:11.077Z,36.88
2023-05-04T12:32:39.080Z,37.11
2023-05-04T12:35:07.981Z,36.47
2023-05-04T12:37:35.857Z,36.66
2023-05-04T12:40:11.268Z,36.67
2023-05-04T12:42:45.591Z,36.59
2023-05-04T12:45:14.054Z,35.62
2023-05-04T12:47:42.332Z,37.07
2023-05-04T12:50:10.990Z,35.54
2023-05-04T12:52:39.905Z,37.41
2023-05-04T12:55:09.676Z,36.43
2023-05-04T12:57:37.860Z,35.97
2023-05-04T13:00:09.793Z,36.64
2023-05-04T13:02:37.606Z,35.13
2023-05-04T13:05:05.904Z,37.15
2023-05-04T13:07:33.777Z,36.31
2023-05-04T13:10:01.853Z,35.62
2023-05-04T13:12:31.014Z,36.22
2023-05-04T13:14:59.510Z,34.88
2023-05-04T13:17:29.572Z,35.71
2023-05-04T13:19:57.285Z,34.75
2023-05-04T13:22:24.909Z,34.09
2023-05-04T13:24:52.497Z,34.84
2023-05-04T13:27:20.191Z,34.45
2023-05-04T13:29:49.229Z,34.11
2023-05-04T13:32:16.945Z,35.19
2023-05-04T13:34:44.918Z,34.53
2023-05-04T13:37:18.156Z,35.86
2023-05-04T13:39:46.213Z,35.17
2023-05-04T13:42:14.127Z,35.19
2023-05-04T13:44:45.301Z,33.79
2023-05-04T13:47:14.406Z,34.75
2023-05-04T13:49:42.072Z,34.96
2023-05-04T13:52:10.018Z,33.72
2023-05-04T13:54:37.968Z,34.18
2023-05-04T13:57:05.872Z,34.18
2023-05-04T14:00:19.315Z,33.79
2023-05-04T14:02:47.289Z,34.91
2023-05-04T14:05:15.158Z,33.48
2023-05-04T14:07:42.837Z,33.96
2023-05-04T14:10:11.521Z,33.65
2023-05-04T14:12:39.227Z,33.18
2023-05-04T14:16:19.573Z,33.83
2023-05-04T14:18:47.740Z,34.25
2023-05-04T14:21:15.626Z,33.86
2023-05-04T14:23:44.726Z,32.97
2023-05-04T14:26:12.365Z,34.19
2023-05-04T14:28:40.104Z,33.37
2023-05-04T14:31:08.900Z,34.43
2023-05-04T14:33:38.004Z,34.00
2023-05-04T14:36:06.154Z,34.04
2023-05-04T14:38:35.250Z,34.07
2023-05-04T14:41:03.031Z,33.61
2023-05-04T14:43:30.719Z,34.38
2023-05-04T14:46:00.177Z,33.39
2023-05-04T14:48:28.634Z,33.94
2023-05-04T15:09:16.084Z,32.92
2023-05-04T15:11:43.774Z,32.77
2023-05-04T15:14:11.490Z,32.28
2023-05-04T15:16:39.342Z,33.55
2023-05-04T15:19:07.794Z,32.92
2023-05-04T15:21:36.019Z,32.40
2023-05-04T15:24:03.708Z,33.35
2023-05-04T15:26:34.453Z,33.45
2023-05-04T15:29:02.185Z,33.49
2023-05-04T15:31:29.928Z,32.72
2023-05-04T15:33:57.540Z,33.07
2023-05-04T15:36:25.435Z,32.41
2023-05-04T15:38:53.135Z,31.75
2023-05-04T15:42:17.337Z,32.55
2023-05-04T15:44:45.675Z,33.71
2023-05-04T15:47:13.404Z,33.78
2023-05-04T15:49:41.172Z,34.23
2023-05-04T15:52:10.454Z,34.29
2023-05-04T15:54:38.127Z,33.76
2023-05-04T15:57:06.185Z,33.44
2023-05-04T15:59:35.323Z,34.00
2023-05-04T16:02:05.922Z,33.84
2023-05-04T16:04:33.594Z,34.04
2023-05-04T16:07:01.401Z,34.40
2023-05-04T16:09:30.541Z,34.94
2023-05-04T16:11:58.329Z,34.35
2023-05-04T16:14:26.085Z,34.50
2023-05-04T16:16:55.419Z,35.69
2023-05-04T16:19:23.145Z,36.01
2023-05-04T16:21:50.822Z,35.29
2023-05-04T16:24:18.527Z,34.88
2023-05-04T16:26:49.753Z,35.56
2023-05-04T16:29:17.466Z,36.21
2023-05-04T16:31:47.615Z,35.11
2023-05-04T16:34:16.620Z,35.28
2023-05-04T16:36:44.748Z,34.87
2023-05-04T16:39:13.592Z,36.36
2023-05-04T16:41:41.296Z,35.85
2023-05-04T16:44:08.983Z,36.12
2023-05-04T16:46:36.734Z,35.89
2023-05-04T16:49:15.537Z,36.04
2023-05-04T16:51:43.494Z,35.59
2023-05-04T16:54:11.331Z,35.28
2023-05-04T16:56:39.214Z,35.28
2023-05-04T16:59:06.873Z,36.04
2023-05-04T17:01:35.105Z,35.21
2023-05-04T17:04:02.944Z,34.98
2023-05-04T17:06:32.232Z,35.64
2023-05-04T17:08:59.913Z,35.22
2023-05-04T17:11:27.639Z,35.28
2023-05-04T17:13:55.972Z,36.21
2023-05-04T17:16:23.704Z,35.69
2023-05-04T17:18:51.454Z,36.14
2023-05-04T17:21:19.870Z,36.20
2023-05-04T17:23:48.924Z,36.07
2023-05-04T17:26:16.550Z,35.94
2023-05-04T17:28:44.305Z,35.29
2023-05-04T17:31:12.607Z,35.85
2023-05-04T17:33:40.448Z,35.19
2023-05-04T17:36:11.106Z,35.79
2023-05-04T17:38:38.824Z,35.51
2023-05-04T17:41:09.687Z,36.36
2023-05-04T17:43:37.720Z,35.97
2023-05-04T17:46:05.642Z,36.01
2023-05-04T17:48:33.327Z,36.41
2023-05-04T17:51:00.994Z,36.01
2023-05-04T17:53:28.729Z,35.83
2023-05-04T17:55:56.449Z,35.91
2023-05-04T17:58:25.954Z,35.86
2023-05-04T18:00:53.976Z,36.73
2023-05-04T18:03:21.731Z,35.46
2023-05-04T18:05:49.496Z,35.87
2023-05-04T18:08:17.196Z,36.11
2023-05-04T18:10:44.860Z,36.70
2023-05-04T18:13:12.568Z,36.48
2023-05-04T18:15:41.612Z,36.46
2023-05-04T18:18:10.824Z,36.49
2023-05-04T18:20:38.623Z,37.23
2023-05-04T18:23:06.288Z,36.96
2023-05-04T18:25:34.023Z,37.62
2023-05-04T18:28:01.697Z,38.14
2023-05-04T18:30:29.675Z,38.45
2023-05-04T18:32:58.764Z,38.80
2023-05-04T18:35:26.441Z,38.92
2023-05-04T18:37:54.104Z,39.48
2023-05-04T18:40:23.880Z,39.55
2023-05-04T18:42:51.686Z,39.38
2023-05-04T18:45:19.350Z,39.89
2023-05-04T18:47:47.039Z,39.78
2023-05-04T18:50:16.275Z,40.40
2023-05-04T18:52:43.957Z,40.39
2023-05-04T18:55:11.662Z,39.80
2023-05-04T18:57:39.332Z,40.64
2023-05-04T19:00:08.972Z,39.82
2023-05-04T19:02:37.771Z,40.71
2023-05-04T19:05:05.977Z,39.99
2023-05-04T19:07:35.007Z,40.79
2023-05-04T19:10:02.810Z,40.74
2023-05-04T19:12:30.614Z,40.68
2023-05-04T19:14:59.070Z,40.57
2023-05-04T19:17:27.329Z,40.77
2023-05-04T19:19:54.942Z,41.09
2023-05-04T19:22:22.629Z,41.11
2023-05-04T19:24:52.473Z,40.34
2023-05-04T19:27:20.086Z,41.68
2023-05-04T19:29:47.702Z,41.53
2023-05-04T19:32:23.323Z,41.47
2023-05-04T19:34:51.804Z,41.48
2023-05-04T19:37:19.499Z,41.41
2023-05-04T19:39:47.423Z,41.96
2023-05-04T19:42:16.479Z,41.98
2023-05-04T19:44:44.187Z,42.07
2023-05-04T19:47:12.654Z,43.04
2023-05-04T19:49:40.310Z,42.39
2023-05-04T19:52:07.976Z,42.41
2023-05-04T19:54:38.056Z,42.72
2023-05-04T19:57:05.744Z,43.11
2023-05-04T19:59:35.483Z,43.68
2023-05-04T20:02:03.780Z,43.67
2023-05-04T20:04:31.418Z,43.25
2023-05-04T20:06:59.071Z,43.64
2023-05-04T20:09:26.673Z,43.67
2023-05-04T20:11:54.302Z,43.35
2023-05-04T20:14:21.893Z,44.30
2023-05-04T20:16:53.344Z,44.37
2023-05-04T20:19:21.037Z,43.36
2023-05-04T20:21:49.010Z,43.41
2023-05-04T20:24:17.228Z,43.88
2023-05-04T20:26:44.911Z,44.47
2023-05-04T20:29:12.656Z,44.32
2023-05-04T20:31:41.033Z,44.38
2023-05-04T20:34:10.189Z,43.96
2023-05-04T20:36:38.190Z,44.17
2023-05-04T20:39:06.810Z,44.79
2023-05-04T20:41:34.595Z,44.82
2023-05-04T20:44:02.299Z,44.66
2023-05-04T20:46:29.962Z,45.27
2023-05-04T20:48:59.297Z,45.21
2023-05-04T20:51:28.334Z,45.27
2023-05-04T20:53:56.068Z,45.06
2023-05-04T20:56:23.787Z,45.29
2023-05-04T20:58:51.646Z,44.94
2023-05-04T21:01:19.367Z,45.18
2023-05-04T21:03:47.192Z,44.70
2023-05-04T21:06:14.963Z,45.30
2023-05-04T21:08:44.068Z,45.02
2023-05-04T21:11:11.721Z,45.43
2023-05-04T21:13:39.317Z,46.15
2023-05-04T21:16:07.794Z,45.62
2023-05-04T21:18:36.031Z,45.85
2023-05-04T21:21:04.112Z,46.02
2023-05-04T21:23:32.006Z,45.91
2023-05-04T21:26:04.397Z,46.31
2023-05-04T21:28:32.582Z,46.27
2023-05-04T21:31:00.692Z,46.62
2023-05-04T21:33:28.504Z,46.69
2023-05-04T21:35:56.187Z,46.94
2023-05-04T21:38:23.780Z,46.79
2023-05-04T21:40:51.450Z,47.15
2023-05-04T21:43:20.506Z,46.88
2023-05-04T21:45:48.181Z,47.29
2023-05-04T21:48:15.880Z,47.25
2023-05-04T21:50:43.553Z,47.48
2023-05-04T21:53:11.237Z,47.06
2023-05-04T21:55:38.859Z,47.68
2023-05-04T21:58:06.509Z,47.08
2023-05-04T22:00:35.621Z,46.88
2023-05-04T22:03:03.411Z,47.65
2023-05-04T22:05:31.175Z,47.07
2023-05-04T22:08:00.801Z,47.78
2023-05-04T22:10:28.508Z,47.53
2023-05-04T22:12:56.235Z,47.98
2023-05-04T22:15:27.533Z,48.06
2023-05-04T22:18:00.818Z,48.14
2023-05-04T22:20:28.604Z,47.63
2023-05-04T22:22:56.576Z,48.42
2023-05-04T22:25:24.261Z,48.55
2023-05-04T22:27:51.973Z,48.32
2023-05-04T22:30:21.409Z,48.16
2023-05-04T22:32:49.140Z,48.25
2023-05-04T22:35:18.427Z,48.67
2023-05-04T22:37:47.991Z,48.40
2023-05-04T22:40:15.830Z,48.53
2023-05-04T22:42:44.780Z,48.76
2023-05-04T22:45:13.962Z,48.58
2023-05-04T22:47:42.143Z,48.98
2023-05-04T22:50:10.861Z,49.27
2023-05-04T22:52:40.245Z,49.21
2023-05-04T22:55:09.212Z,49.29
2023-05-04T22:57:36.947Z,49.08
2023-05-04T23:00:07.677Z,49.29
2023-05-04T23:02:35.838Z,49.13
2023-05-04T23:05:03.894Z,49.39
2023-05-04T23:07:31.599Z,49.33
2023-05-04T23:10:00.776Z,49.43
2023-05-04T23:12:28.780Z,49.14
2023-05-04T23:14:56.435Z,49.72
2023-05-04T23:17:24.148Z,49.08
2023-05-04T23:19:51.971Z,49.54
2023-05-04T23:22:20.102Z,50.05
2023-05-04T23:24:47.767Z,50.01
2023-05-04T23:27:16.841Z,50.13
2023-05-04T23:29:44.537Z,49.90
2023-05-04T23:32:12.270Z,50.05
2023-05-04T23:34:39.955Z,49.90
2023-05-04T23:37:07.611Z,50.21
2023-05-04T23:39:35.696Z,50.38
2023-05-04T23:42:03.369Z,50.29
2023-05-04T23:44:32.933Z,50.11
2023-05-04T23:47:00.580Z,50.18
2023-05-04T23:49:28.212Z,50.03
2023-05-04T23:51:56.409Z,50.65
2023-05-04T23:54:24.355Z,50.55
2023-05-04T23:56:52.047Z,50.50
2023-05-04T23:59:19.748Z,50.29
